sensor_id;sensor_type;location;lat;lon;timestamp;pressure;altitude;pressure_sealevel;temperature;humidity
51321;BME280;38732;49.556;6.286;2022-10-01T00:01:13;99077.44;;;14.04;68.81
51321;BME280;38732;49.556;6.286;2022-10-01T00:03:42;99064.88;;;14.26;68.60
51321;BME280;38732;49.556;6.286;2022-10-01T00:06:16;99063.69;;;14.41;67.88
51321;BME280;38732;49.556;6.286;2022-10-01T00:08:47;99061.47;;;14.22;67.58
51321;BME280;38732;49.556;6.286;2022-10-01T00:11:21;99059.97;;;14.12;68.72
51321;BME280;38732;49.556;6.286;2022-10-01T00:13:51;99055.00;;;14.01;69.12
51321;BME280;38732;49.556;6.286;2022-10-01T00:16:23;99052.72;;;14.28;67.78
51321;BME280;38732;49.556;6.286;2022-10-01T00:18:52;99047.59;;;13.83;68.67
51321;BME280;38732;49.556;6.286;2022-10-01T00:21:27;99052.06;;;14.18;67.43
51321;BME280;38732;49.556;6.286;2022-10-01T00:24:01;99048.41;;;14.27;67.89
51321;BME280;38732;49.556;6.286;2022-10-01T00:26:34;99039.44;;;14.01;69.72
51321;BME280;38732;49.556;6.286;2022-10-01T00:29:10;99040.69;;;13.82;70.27
51321;BME280;38732;49.556;6.286;2022-10-01T00:31:39;99035.72;;;14.13;68.65
51321;BME280;38732;49.556;6.286;2022-10-01T00:34:10;99031.72;;;13.98;69.62
51321;BME280;38732;49.556;6.286;2022-10-01T00:36:39;99020.19;;;13.23;72.25
51321;BME280;38732;49.556;6.286;2022-10-01T00:39:09;99021.41;;;13.95;69.68
51321;BME280;38732;49.556;6.286;2022-10-01T00:41:37;99014.81;;;13.35;72.37
51321;BME280;38732;49.556;6.286;2022-10-01T00:44:36;99009.25;;;13.55;71.80
51321;BME280;38732;49.556;6.286;2022-10-01T00:50:11;98992.91;;;14.33;67.68
51321;BME280;38732;49.556;6.286;2022-10-01T00:52:44;98998.88;;;13.96;70.73
51321;BME280;38732;49.556;6.286;2022-10-01T00:55:40;98992.34;;;14.18;69.50
51321;BME280;38732;49.556;6.286;2022-10-01T00:58:12;98980.56;;;14.41;67.38
51321;BME280;38732;49.556;6.286;2022-10-01T01:00:41;98985.94;;;14.33;68.01
51321;BME280;38732;49.556;6.286;2022-10-01T01:03:11;98984.66;;;14.12;69.77
51321;BME280;38732;49.556;6.286;2022-10-01T01:05:39;98977.16;;;14.39;69.26
51321;BME280;38732;49.556;6.286;2022-10-01T01:08:08;98973.44;;;13.28;72.18
51321;BME280;38732;49.556;6.286;2022-10-01T01:10:48;98979.31;;;13.81;73.54
51321;BME280;38732;49.556;6.286;2022-10-01T01:13:23;98975.38;;;14.02;72.38
51321;BME280;38732;49.556;6.286;2022-10-01T01:16:02;98970.69;;;13.79;71.46
51321;BME280;38732;49.556;6.286;2022-10-01T01:18:41;98974.38;;;14.08;72.52
51321;BME280;38732;49.556;6.286;2022-10-01T01:21:28;98974.31;;;13.28;74.03
51321;BME280;38732;49.556;6.286;2022-10-01T01:32:23;98974.09;;;12.89;84.44
51321;BME280;38732;49.556;6.286;2022-10-01T01:34:55;98976.28;;;13.59;80.27
51321;BME280;38732;49.556;6.286;2022-10-01T01:37:27;98972.50;;;13.75;80.58
51321;BME280;38732;49.556;6.286;2022-10-01T01:39:58;98970.28;;;13.57;81.40
51321;BME280;38732;49.556;6.286;2022-10-01T01:42:38;98963.94;;;13.25;84.18
51321;BME280;38732;49.556;6.286;2022-10-01T01:45:12;98968.09;;;13.79;82.43
51321;BME280;38732;49.556;6.286;2022-10-01T01:47:42;98960.31;;;13.79;81.63
51321;BME280;38732;49.556;6.286;2022-10-01T01:50:14;98969.78;;;13.81;82.40
51321;BME280;38732;49.556;6.286;2022-10-01T01:52:43;98971.94;;;13.61;85.94
51321;BME280;38732;49.556;6.286;2022-10-01T01:55:11;98969.69;;;13.86;83.81
51321;BME280;38732;49.556;6.286;2022-10-01T01:57:41;98966.91;;;13.94;84.78
51321;BME280;38732;49.556;6.286;2022-10-01T02:00:11;98971.31;;;13.90;82.89
51321;BME280;38732;49.556;6.286;2022-10-01T02:02:44;98966.19;;;13.45;86.53
51321;BME280;38732;49.556;6.286;2022-10-01T02:05:17;98956.88;;;13.78;83.84
51321;BME280;38732;49.556;6.286;2022-10-01T02:13:44;98947.97;;;13.03;93.80
51321;BME280;38732;49.556;6.286;2022-10-01T02:19:04;98944.59;;;12.48;95.21
51321;BME280;38732;49.556;6.286;2022-10-01T02:21:53;98933.97;;;13.12;90.09
51321;BME280;38732;49.556;6.286;2022-10-01T02:24:35;98936.28;;;13.27;92.33
51321;BME280;38732;49.556;6.286;2022-10-01T02:27:14;98926.16;;;13.58;89.09
51321;BME280;38732;49.556;6.286;2022-10-01T02:29:47;98928.78;;;13.57;88.80
51321;BME280;38732;49.556;6.286;2022-10-01T02:32:17;98907.97;;;13.16;91.68
51321;BME280;38732;49.556;6.286;2022-10-01T02:34:47;98905.41;;;13.58;88.35
51321;BME280;38732;49.556;6.286;2022-10-01T02:37:19;98905.09;;;13.72;86.82
51321;BME280;38732;49.556;6.286;2022-10-01T02:39:50;98917.38;;;13.66;86.84
51321;BME280;38732;49.556;6.286;2022-10-01T02:42:20;98903.31;;;13.74;87.67
51321;BME280;38732;49.556;6.286;2022-10-01T02:44:52;98881.81;;;12.84;93.28
51321;BME280;38732;49.556;6.286;2022-10-01T02:47:28;98896.66;;;13.21;93.58
51321;BME280;38732;49.556;6.286;2022-10-01T02:49:57;98882.88;;;13.61;89.56
51321;BME280;38732;49.556;6.286;2022-10-01T02:55:09;98890.53;;;13.65;89.40
51321;BME280;38732;49.556;6.286;2022-10-01T02:57:40;98877.59;;;13.23;94.93
51321;BME280;38732;49.556;6.286;2022-10-01T03:00:12;98880.06;;;13.29;93.43
51321;BME280;38732;49.556;6.286;2022-10-01T03:02:41;98879.84;;;12.95;95.00
51321;BME280;38732;49.556;6.286;2022-10-01T03:05:09;98872.69;;;13.53;92.56
51321;BME280;38732;49.556;6.286;2022-10-01T03:07:37;98876.13;;;13.53;91.37
51321;BME280;38732;49.556;6.286;2022-10-01T03:10:07;98868.94;;;12.79;96.90
51321;BME280;38732;49.556;6.286;2022-10-01T03:12:36;98869.91;;;13.19;93.36
51321;BME280;38732;49.556;6.286;2022-10-01T03:15:04;98853.13;;;13.38;91.79
51321;BME280;38732;49.556;6.286;2022-10-01T03:17:33;98844.75;;;13.64;91.86
51321;BME280;38732;49.556;6.286;2022-10-01T03:20:02;98836.03;;;13.68;90.93
51321;BME280;38732;49.556;6.286;2022-10-01T03:22:30;98837.63;;;13.74;92.04
51321;BME280;38732;49.556;6.286;2022-10-01T03:24:59;98847.19;;;13.70;92.12
51321;BME280;38732;49.556;6.286;2022-10-01T03:27:27;98825.38;;;13.80;92.45
51321;BME280;38732;49.556;6.286;2022-10-01T03:29:55;98830.59;;;13.77;91.33
51321;BME280;38732;49.556;6.286;2022-10-01T03:32:24;98840.94;;;13.79;90.78
51321;BME280;38732;49.556;6.286;2022-10-01T03:34:52;98850.56;;;13.75;92.07
51321;BME280;38732;49.556;6.286;2022-10-01T03:37:20;98855.81;;;13.32;94.14
51321;BME280;38732;49.556;6.286;2022-10-01T03:39:48;98864.59;;;13.67;92.79
51321;BME280;38732;49.556;6.286;2022-10-01T03:42:17;98858.00;;;13.52;93.45
51321;BME280;38732;49.556;6.286;2022-10-01T03:44:45;98862.00;;;13.67;94.71
51321;BME280;38732;49.556;6.286;2022-10-01T03:47:13;98845.28;;;13.40;96.88
51321;BME280;38732;49.556;6.286;2022-10-01T03:49:41;98833.19;;;13.77;95.80
51321;BME280;38732;49.556;6.286;2022-10-01T03:52:09;98810.66;;;13.79;93.56
51321;BME280;38732;49.556;6.286;2022-10-01T03:54:38;98801.28;;;13.75;93.34
51321;BME280;38732;49.556;6.286;2022-10-01T03:57:06;98810.66;;;13.79;93.14
51321;BME280;38732;49.556;6.286;2022-10-01T03:59:34;98804.72;;;13.76;92.98
51321;BME280;38732;49.556;6.286;2022-10-01T04:02:02;98813.25;;;13.81;94.09
51321;BME280;38732;49.556;6.286;2022-10-01T04:04:31;98803.59;;;13.86;95.68
51321;BME280;38732;49.556;6.286;2022-10-01T04:06:59;98817.06;;;12.82;100.00
51321;BME280;38732;49.556;6.286;2022-10-01T04:09:27;98800.16;;;13.06;100.00
51321;BME280;38732;49.556;6.286;2022-10-01T04:11:55;98812.88;;;13.19;100.00
51321;BME280;38732;49.556;6.286;2022-10-01T04:14:23;98816.94;;;12.42;100.00
51321;BME280;38732;49.556;6.286;2022-10-01T04:16:52;98804.00;;;13.30;100.00
51321;BME280;38732;49.556;6.286;2022-10-01T04:19:20;98787.72;;;13.63;98.13
51321;BME280;38732;49.556;6.286;2022-10-01T04:21:48;98797.75;;;12.54;100.00
51321;BME280;38732;49.556;6.286;2022-10-01T04:24:16;98786.38;;;13.45;100.00
51321;BME280;38732;49.556;6.286;2022-10-01T04:26:45;98785.94;;;13.65;99.82
51321;BME280;38732;49.556;6.286;2022-10-01T04:29:13;98781.53;;;13.68;100.00
51321;BME280;38732;49.556;6.286;2022-10-01T04:31:41;98785.91;;;12.85;100.00
51321;BME280;38732;49.556;6.286;2022-10-01T04:34:09;98777.88;;;13.40;100.00
51321;BME280;38732;49.556;6.286;2022-10-01T04:36:38;98776.31;;;13.70;99.28
51321;BME280;38732;49.556;6.286;2022-10-01T04:39:06;98783.69;;;13.87;99.23
51321;BME280;38732;49.556;6.286;2022-10-01T04:41:34;98792.13;;;13.19;100.00
51321;BME280;38732;49.556;6.286;2022-10-01T04:44:02;98787.88;;;12.27;100.00
51321;BME280;38732;49.556;6.286;2022-10-01T04:46:31;98783.75;;;11.61;100.00
51321;BME280;38732;49.556;6.286;2022-10-01T04:48:59;98785.44;;;12.65;100.00
51321;BME280;38732;49.556;6.286;2022-10-01T04:51:27;98805.28;;;11.63;100.00
51321;BME280;38732;49.556;6.286;2022-10-01T04:53:55;98782.78;;;12.69;100.00
51321;BME280;38732;49.556;6.286;2022-10-01T04:56:24;98778.72;;;13.40;100.00
51321;BME280;38732;49.556;6.286;2022-10-01T04:58:52;98783.59;;;11.72;100.00
51321;BME280;38732;49.556;6.286;2022-10-01T05:01:20;98787.78;;;12.77;100.00
51321;BME280;38732;49.556;6.286;2022-10-01T05:03:48;98789.78;;;11.63;100.00
51321;BME280;38732;49.556;6.286;2022-10-01T05:06:16;98793.59;;;12.45;100.00
51321;BME280;38732;49.556;6.286;2022-10-01T05:08:45;98792.34;;;12.18;100.00
51321;BME280;38732;49.556;6.286;2022-10-01T05:11:13;98776.03;;;13.04;100.00
51321;BME280;38732;49.556;6.286;2022-10-01T05:13:41;98787.78;;;13.21;100.00
51321;BME280;38732;49.556;6.286;2022-10-01T05:16:09;98779.34;;;13.50;100.00
51321;BME280;38732;49.556;6.286;2022-10-01T05:18:37;98783.34;;;12.84;100.00
51321;BME280;38732;49.556;6.286;2022-10-01T05:21:06;98785.91;;;12.40;100.00
51321;BME280;38732;49.556;6.286;2022-10-01T05:23:34;98790.38;;;11.20;100.00
51321;BME280;38732;49.556;6.286;2022-10-01T05:26:03;98809.75;;;12.09;100.00
51321;BME280;38732;49.556;6.286;2022-10-01T05:28:32;98806.94;;;12.70;100.00
51321;BME280;38732;49.556;6.286;2022-10-01T05:31:02;98807.34;;;11.99;100.00
51321;BME280;38732;49.556;6.286;2022-10-01T05:33:30;98825.41;;;12.51;100.00
51321;BME280;38732;49.556;6.286;2022-10-01T05:35:58;98814.00;;;12.12;100.00
51321;BME280;38732;49.556;6.286;2022-10-01T05:38:27;98819.09;;;12.66;100.00
51321;BME280;38732;49.556;6.286;2022-10-01T05:40:55;98815.19;;;12.90;100.00
51321;BME280;38732;49.556;6.286;2022-10-01T05:43:23;98806.44;;;11.44;100.00
51321;BME280;38732;49.556;6.286;2022-10-01T05:45:51;98792.06;;;11.82;100.00
51321;BME280;38732;49.556;6.286;2022-10-01T05:48:20;98787.59;;;11.36;100.00
51321;BME280;38732;49.556;6.286;2022-10-01T05:50:48;98779.97;;;11.25;100.00
51321;BME280;38732;49.556;6.286;2022-10-01T05:53:16;98770.69;;;11.12;100.00
51321;BME280;38732;49.556;6.286;2022-10-01T05:55:44;98777.59;;;11.08;100.00
51321;BME280;38732;49.556;6.286;2022-10-01T05:58:13;98785.88;;;11.35;100.00
51321;BME280;38732;49.556;6.286;2022-10-01T06:00:42;98771.47;;;11.17;100.00
51321;BME280;38732;49.556;6.286;2022-10-01T06:03:11;98766.03;;;11.38;100.00
51321;BME280;38732;49.556;6.286;2022-10-01T06:05:39;98778.34;;;11.18;100.00
51321;BME280;38732;49.556;6.286;2022-10-01T06:08:11;98790.50;;;11.11;100.00
51321;BME280;38732;49.556;6.286;2022-10-01T06:10:40;98788.88;;;11.04;100.00
51321;BME280;38732;49.556;6.286;2022-10-01T06:13:08;98784.81;;;11.48;100.00
51321;BME280;38732;49.556;6.286;2022-10-01T06:15:37;98787.88;;;11.13;100.00
51321;BME280;38732;49.556;6.286;2022-10-01T06:18:07;98787.19;;;11.00;100.00
51321;BME280;38732;49.556;6.286;2022-10-01T06:20:36;98780.56;;;11.44;100.00
51321;BME280;38732;49.556;6.286;2022-10-01T06:23:06;98795.84;;;10.99;100.00
51321;BME280;38732;49.556;6.286;2022-10-01T06:25:37;98793.56;;;11.38;100.00
51321;BME280;38732;49.556;6.286;2022-10-01T06:28:09;98805.16;;;11.11;100.00
51321;BME280;38732;49.556;6.286;2022-10-01T06:30:38;98796.53;;;11.12;100.00
51321;BME280;38732;49.556;6.286;2022-10-01T06:33:11;98793.22;;;12.65;100.00
51321;BME280;38732;49.556;6.286;2022-10-01T06:35:48;98813.31;;;12.97;100.00
51321;BME280;38732;49.556;6.286;2022-10-01T06:38:18;98816.13;;;12.86;100.00
51321;BME280;38732;49.556;6.286;2022-10-01T06:40:55;98786.78;;;12.86;100.00
51321;BME280;38732;49.556;6.286;2022-10-01T06:43:25;98789.38;;;12.39;100.00
51321;BME280;38732;49.556;6.286;2022-10-01T06:45:55;98782.91;;;11.61;100.00
51321;BME280;38732;49.556;6.286;2022-10-01T06:48:23;98771.50;;;12.25;100.00
51321;BME280;38732;49.556;6.286;2022-10-01T06:50:54;98776.31;;;11.41;100.00
51321;BME280;38732;49.556;6.286;2022-10-01T06:53:22;98767.47;;;10.93;100.00
51321;BME280;38732;49.556;6.286;2022-10-01T06:55:50;98707.94;;;11.61;100.00
51321;BME280;38732;49.556;6.286;2022-10-01T06:58:20;98680.28;;;11.63;100.00
51321;BME280;38732;49.556;6.286;2022-10-01T07:00:49;98735.28;;;10.50;100.00
51321;BME280;38732;49.556;6.286;2022-10-01T07:03:19;98757.97;;;10.96;100.00
51321;BME280;38732;49.556;6.286;2022-10-01T07:05:48;98753.78;;;10.88;100.00
51321;BME280;38732;49.556;6.286;2022-10-01T07:08:17;98739.75;;;11.07;100.00
51321;BME280;38732;49.556;6.286;2022-10-01T07:10:45;98743.38;;;11.53;100.00
51321;BME280;38732;49.556;6.286;2022-10-01T07:13:16;98769.09;;;11.01;100.00
51321;BME280;38732;49.556;6.286;2022-10-01T07:15:45;98775.13;;;11.02;100.00
51321;BME280;38732;49.556;6.286;2022-10-01T07:18:14;98761.09;;;11.21;100.00
51321;BME280;38732;49.556;6.286;2022-10-01T07:20:42;98767.31;;;11.65;100.00
51321;BME280;38732;49.556;6.286;2022-10-01T07:23:11;98776.59;;;11.77;100.00
51321;BME280;38732;49.556;6.286;2022-10-01T07:25:41;98775.97;;;11.63;100.00
51321;BME280;38732;49.556;6.286;2022-10-01T07:28:13;98775.25;;;11.55;100.00
51321;BME280;38732;49.556;6.286;2022-10-01T07:30:47;98787.78;;;11.81;100.00
51321;BME280;38732;49.556;6.286;2022-10-01T07:33:23;98780.88;;;11.81;100.00
51321;BME280;38732;49.556;6.286;2022-10-01T07:35:52;98789.88;;;12.12;100.00
51321;BME280;38732;49.556;6.286;2022-10-01T07:38:20;98782.19;;;12.08;100.00
51321;BME280;38732;49.556;6.286;2022-10-01T07:40:52;98779.53;;;12.10;100.00
51321;BME280;38732;49.556;6.286;2022-10-01T07:43:21;98792.75;;;12.44;100.00
51321;BME280;38732;49.556;6.286;2022-10-01T07:45:49;98800.56;;;11.93;100.00
51321;BME280;38732;49.556;6.286;2022-10-01T07:48:18;98807.75;;;12.73;100.00
51321;BME280;38732;49.556;6.286;2022-10-01T07:50:46;98803.50;;;13.13;100.00
51321;BME280;38732;49.556;6.286;2022-10-01T07:53:15;98804.34;;;13.13;100.00
51321;BME280;38732;49.556;6.286;2022-10-01T07:55:44;98803.03;;;12.47;100.00
51321;BME280;38732;49.556;6.286;2022-10-01T07:58:12;98809.19;;;12.88;100.00
51321;BME280;38732;49.556;6.286;2022-10-01T08:00:41;98803.72;;;13.80;100.00
51321;BME280;38732;49.556;6.286;2022-10-01T08:03:09;98803.63;;;13.05;100.00
51321;BME280;38732;49.556;6.286;2022-10-01T08:05:39;98803.03;;;13.36;100.00
51321;BME280;38732;49.556;6.286;2022-10-01T08:08:08;98810.56;;;13.45;100.00
51321;BME280;38732;49.556;6.286;2022-10-01T08:10:37;98818.78;;;12.83;100.00
51321;BME280;38732;49.556;6.286;2022-10-01T08:13:08;98820.66;;;13.19;100.00
51321;BME280;38732;49.556;6.286;2022-10-01T08:15:37;98822.75;;;13.00;100.00
51321;BME280;38732;49.556;6.286;2022-10-01T08:18:06;98827.72;;;13.52;100.00
51321;BME280;38732;49.556;6.286;2022-10-01T08:20:34;98827.19;;;13.38;100.00
51321;BME280;38732;49.556;6.286;2022-10-01T08:23:07;98824.00;;;14.00;100.00
51321;BME280;38732;49.556;6.286;2022-10-01T08:25:36;98820.28;;;14.12;100.00
51321;BME280;38732;49.556;6.286;2022-10-01T08:28:06;98826.56;;;13.27;100.00
51321;BME280;38732;49.556;6.286;2022-10-01T08:30:37;98838.66;;;13.25;100.00
51321;BME280;38732;49.556;6.286;2022-10-01T08:33:06;98838.34;;;13.40;100.00
51321;BME280;38732;49.556;6.286;2022-10-01T08:35:38;98842.31;;;13.14;100.00
51321;BME280;38732;49.556;6.286;2022-10-01T08:38:07;98837.75;;;13.68;100.00
51321;BME280;38732;49.556;6.286;2022-10-01T08:40:45;98845.38;;;13.75;100.00
51321;BME280;38732;49.556;6.286;2022-10-01T08:43:30;98845.53;;;13.29;100.00
51321;BME280;38732;49.556;6.286;2022-10-01T08:46:05;98848.50;;;13.51;100.00
51321;BME280;38732;49.556;6.286;2022-10-01T08:48:54;98845.41;;;12.90;100.00
51321;BME280;38732;49.556;6.286;2022-10-01T08:54:47;98848.13;;;13.29;100.00
51321;BME280;38732;49.556;6.286;2022-10-01T08:57:21;98851.03;;;13.93;100.00
51321;BME280;38732;49.556;6.286;2022-10-01T08:59:56;98855.59;;;13.81;100.00
51321;BME280;38732;49.556;6.286;2022-10-01T09:02:29;98859.25;;;13.34;100.00
51321;BME280;38732;49.556;6.286;2022-10-01T09:05:02;98869.88;;;14.01;100.00
51321;BME280;38732;49.556;6.286;2022-10-01T09:07:43;98876.63;;;12.82;100.00
51321;BME280;38732;49.556;6.286;2022-10-01T09:18:41;98869.44;;;13.42;100.00
51321;BME280;38732;49.556;6.286;2022-10-01T09:21:18;98874.50;;;13.04;100.00
51321;BME280;38732;49.556;6.286;2022-10-01T09:24:03;98868.84;;;13.29;100.00
51321;BME280;38732;49.556;6.286;2022-10-01T09:26:32;98870.50;;;13.73;100.00
51321;BME280;38732;49.556;6.286;2022-10-01T09:29:10;98860.06;;;14.48;100.00
51321;BME280;38732;49.556;6.286;2022-10-01T09:31:43;98869.69;;;14.09;100.00
51321;BME280;38732;49.556;6.286;2022-10-01T09:34:19;98879.69;;;13.48;100.00
51321;BME280;38732;49.556;6.286;2022-10-01T09:37:11;98864.88;;;14.63;100.00
51321;BME280;38732;49.556;6.286;2022-10-01T09:39:53;98868.72;;;14.81;100.00
51321;BME280;38732;49.556;6.286;2022-10-01T09:42:26;98869.69;;;15.40;100.00
51321;BME280;38732;49.556;6.286;2022-10-01T09:44:56;98872.97;;;14.85;100.00
51321;BME280;38732;49.556;6.286;2022-10-01T09:47:25;98864.66;;;14.71;100.00
51321;BME280;38732;49.556;6.286;2022-10-01T09:49:53;98870.69;;;15.36;100.00
51321;BME280;38732;49.556;6.286;2022-10-01T09:52:33;98862.91;;;15.34;100.00
51321;BME280;38732;49.556;6.286;2022-10-01T09:55:41;98863.03;;;15.29;100.00
51321;BME280;38732;49.556;6.286;2022-10-01T09:58:16;98871.44;;;15.39;100.00
51321;BME280;38732;49.556;6.286;2022-10-01T10:00:45;98873.09;;;14.79;100.00
51321;BME280;38732;49.556;6.286;2022-10-01T10:03:25;98875.56;;;15.46;100.00
51321;BME280;38732;49.556;6.286;2022-10-01T10:05:54;98867.66;;;16.34;100.00
51321;BME280;38732;49.556;6.286;2022-10-01T10:08:27;98878.75;;;16.12;100.00
51321;BME280;38732;49.556;6.286;2022-10-01T10:11:09;98859.59;;;16.67;100.00
51321;BME280;38732;49.556;6.286;2022-10-01T10:13:48;98872.03;;;15.79;100.00
51321;BME280;38732;49.556;6.286;2022-10-01T10:16:25;98863.66;;;15.67;100.00
51321;BME280;38732;49.556;6.286;2022-10-01T10:18:57;98881.44;;;16.37;100.00
51321;BME280;38732;49.556;6.286;2022-10-01T10:21:30;98870.72;;;16.20;100.00
51321;BME280;38732;49.556;6.286;2022-10-01T10:24:01;98869.78;;;15.94;100.00
51321;BME280;38732;49.556;6.286;2022-10-01T10:26:38;98880.03;;;15.72;100.00
51321;BME280;38732;49.556;6.286;2022-10-01T10:29:24;98863.31;;;16.59;100.00
51321;BME280;38732;49.556;6.286;2022-10-01T10:31:53;98872.84;;;15.81;100.00
51321;BME280;38732;49.556;6.286;2022-10-01T10:34:28;98875.03;;;16.48;100.00
51321;BME280;38732;49.556;6.286;2022-10-01T10:36:59;98879.44;;;16.19;100.00
51321;BME280;38732;49.556;6.286;2022-10-01T10:39:32;98894.97;;;16.74;100.00
51321;BME280;38732;49.556;6.286;2022-10-01T10:42:03;98896.47;;;16.56;100.00
51321;BME280;38732;49.556;6.286;2022-10-01T10:44:36;98901.38;;;16.38;100.00
51321;BME280;38732;49.556;6.286;2022-10-01T10:47:08;98905.53;;;16.71;100.00
51321;BME280;38732;49.556;6.286;2022-10-01T10:54:57;98902.38;;;16.61;100.00
51321;BME280;38732;49.556;6.286;2022-10-01T10:57:27;98912.22;;;15.98;100.00
51321;BME280;38732;49.556;6.286;2022-10-01T10:59:56;98927.34;;;15.24;100.00
51321;BME280;38732;49.556;6.286;2022-10-01T11:02:30;98924.47;;;16.23;100.00
51321;BME280;38732;49.556;6.286;2022-10-01T11:05:14;98925.19;;;16.81;100.00
51321;BME280;38732;49.556;6.286;2022-10-01T11:07:45;98926.66;;;15.80;100.00
51321;BME280;38732;49.556;6.286;2022-10-01T11:10:30;98927.47;;;16.64;100.00
51321;BME280;38732;49.556;6.286;2022-10-01T11:19:10;98949.44;;;16.02;100.00
51321;BME280;38732;49.556;6.286;2022-10-01T11:21:49;98948.09;;;16.98;100.00
51321;BME280;38732;49.556;6.286;2022-10-01T11:24:52;98977.75;;;16.12;100.00
51321;BME280;38732;49.556;6.286;2022-10-01T11:27:48;98996.84;;;15.83;100.00
51321;BME280;38732;49.556;6.286;2022-10-01T11:30:22;98993.72;;;15.39;100.00
51321;BME280;38732;49.556;6.286;2022-10-01T11:41:11;98995.72;;;17.03;100.00
51321;BME280;38732;49.556;6.286;2022-10-01T11:43:46;98997.91;;;17.15;100.00
51321;BME280;38732;49.556;6.286;2022-10-01T11:46:33;98999.38;;;16.71;100.00
51321;BME280;38732;49.556;6.286;2022-10-01T11:52:12;98989.97;;;17.18;100.00
51321;BME280;38732;49.556;6.286;2022-10-01T11:54:55;98992.28;;;17.28;100.00
51321;BME280;38732;49.556;6.286;2022-10-01T11:57:25;98990.84;;;17.67;100.00
51321;BME280;38732;49.556;6.286;2022-10-01T12:00:00;98985.59;;;17.93;100.00
51321;BME280;38732;49.556;6.286;2022-10-01T12:02:39;98994.91;;;18.00;100.00
51321;BME280;38732;49.556;6.286;2022-10-01T12:05:19;98993.84;;;18.27;100.00
51321;BME280;38732;49.556;6.286;2022-10-01T12:07:54;98975.63;;;18.90;100.00
51321;BME280;38732;49.556;6.286;2022-10-01T12:10:34;98966.94;;;20.08;95.46
51321;BME280;38732;49.556;6.286;2022-10-01T12:15:48;98970.72;;;20.58;86.12
51321;BME280;38732;49.556;6.286;2022-10-01T12:20:57;98977.84;;;20.37;86.45
51321;BME280;38732;49.556;6.286;2022-10-01T12:23:30;98984.72;;;20.20;87.45
51321;BME280;38732;49.556;6.286;2022-10-01T12:26:07;98974.22;;;20.39;91.94
51321;BME280;38732;49.556;6.286;2022-10-01T12:28:56;98972.75;;;20.87;90.11
51321;BME280;38732;49.556;6.286;2022-10-01T12:32:03;98971.72;;;21.42;85.99
51321;BME280;38732;49.556;6.286;2022-10-01T12:34:43;98964.81;;;22.68;78.11
51321;BME280;38732;49.556;6.286;2022-10-01T12:45:40;98954.56;;;24.23;67.39
51321;BME280;38732;49.556;6.286;2022-10-01T12:48:35;98946.94;;;23.19;66.90
51321;BME280;38732;49.556;6.286;2022-10-01T12:54:24;98961.66;;;20.10;83.84
51321;BME280;38732;49.556;6.286;2022-10-01T12:57:10;98952.28;;;20.94;77.91
51321;BME280;38732;49.556;6.286;2022-10-01T12:59:56;98971.69;;;18.58;91.08
51321;BME280;38732;49.556;6.286;2022-10-01T13:07:51;98978.16;;;21.19;81.27
51321;BME280;38732;49.556;6.286;2022-10-01T13:13:10;98990.28;;;21.22;75.93
51321;BME280;38732;49.556;6.286;2022-10-01T13:15:43;98987.03;;;20.82;80.82
51321;BME280;38732;49.556;6.286;2022-10-01T13:20:57;98995.19;;;21.79;71.36
51321;BME280;38732;49.556;6.286;2022-10-01T13:31:36;99019.84;;;19.58;81.68
51321;BME280;38732;49.556;6.286;2022-10-01T13:37:12;99039.50;;;19.48;83.76
51321;BME280;38732;49.556;6.286;2022-10-01T13:39:41;99038.59;;;18.64;85.50
51321;BME280;38732;49.556;6.286;2022-10-01T13:42:21;99032.69;;;19.44;87.09
51321;BME280;38732;49.556;6.286;2022-10-01T13:45:01;99041.44;;;19.83;83.04
51321;BME280;38732;49.556;6.286;2022-10-01T13:47:32;99043.16;;;19.03;89.07
51321;BME280;38732;49.556;6.286;2022-10-01T13:50:28;99031.88;;;18.80;86.43
51321;BME280;38732;49.556;6.286;2022-10-01T13:53:15;99049.28;;;16.87;100.00
51321;BME280;38732;49.556;6.286;2022-10-01T13:55:45;99043.66;;;17.25;100.00
51321;BME280;38732;49.556;6.286;2022-10-01T14:01:01;99045.78;;;18.13;100.00
51321;BME280;38732;49.556;6.286;2022-10-01T14:03:45;99058.06;;;17.37;100.00
51321;BME280;38732;49.556;6.286;2022-10-01T14:06:24;99071.78;;;16.91;100.00
51321;BME280;38732;49.556;6.286;2022-10-01T14:11:28;99071.72;;;17.69;100.00
51321;BME280;38732;49.556;6.286;2022-10-01T14:14:07;99083.16;;;18.15;100.00
51321;BME280;38732;49.556;6.286;2022-10-01T14:16:40;99077.91;;;18.39;98.86
51321;BME280;38732;49.556;6.286;2022-10-01T14:19:17;99087.38;;;18.65;97.83
51321;BME280;38732;49.556;6.286;2022-10-01T14:22:15;99095.19;;;18.19;100.00
51321;BME280;38732;49.556;6.286;2022-10-01T14:25:11;99090.84;;;17.44;100.00
51321;BME280;38732;49.556;6.286;2022-10-01T14:39:26;99121.72;;;18.08;100.00
51321;BME280;38732;49.556;6.286;2022-10-01T14:41:56;99128.63;;;18.35;100.00
51321;BME280;38732;49.556;6.286;2022-10-01T14:44:28;99125.81;;;18.39;100.00
51321;BME280;38732;49.556;6.286;2022-10-01T14:46:59;99133.38;;;18.00;100.00
51321;BME280;38732;49.556;6.286;2022-10-01T14:49:29;99131.25;;;18.57;100.00
51321;BME280;38732;49.556;6.286;2022-10-01T14:52:03;99129.38;;;19.06;99.80
51321;BME280;38732;49.556;6.286;2022-10-01T14:57:32;99106.41;;;19.55;97.13
51321;BME280;38732;49.556;6.286;2022-10-01T15:00:12;99129.84;;;18.24;100.00
51321;BME280;38732;49.556;6.286;2022-10-01T15:07:52;99129.72;;;17.79;100.00
51321;BME280;38732;49.556;6.286;2022-10-01T15:10:25;99138.88;;;18.63;100.00
51321;BME280;38732;49.556;6.286;2022-10-01T15:12:54;99144.41;;;19.01;97.05
51321;BME280;38732;49.556;6.286;2022-10-01T15:15:32;99151.31;;;19.66;90.01
51321;BME280;38732;49.556;6.286;2022-10-01T15:18:03;99145.69;;;19.77;88.27
51321;BME280;38732;49.556;6.286;2022-10-01T15:20:31;99143.59;;;19.43;91.15
51321;BME280;38732;49.556;6.286;2022-10-01T15:23:03;99162.84;;;18.98;94.06
51321;BME280;38732;49.556;6.286;2022-10-01T15:25:32;99163.66;;;19.00;94.77